Sacramento, KY (42372)

2:10 PM CST on November 24, 2014 (GMT -0600)
Madisonville | Change Station
CLOSE
Current Station
Airport
Location: Madisonville,
Elevation: 436 ft
Nearby Weather Stations
Active Advisory: Wind Advisory

Elev 436 ft 37.36 °N, 87.40 °W | Updated 15 minutes ago

Mostly Cloudy
Mostly Cloudy
53 °F
Feels Like 53 °F
N
18
Wind Variable Wind from WSW
Gusts 26 mph

Today
High -- | Low -- °F
--% Chance of Precip.
Yesterday
High -- | Low -- °F
Precip. -- in
6:37 AM 4:33 PM
Waxing Crescent, 7% visible
Pressure 29.77 in
Visibility 10.0 miles
Clouds Mostly Cloudy 4000 ft
Dew Point 38 °F
Humidity 56%
Rainfall 0.00 in
Snow Depth Not available.
UV 1 out of 12
Pollen 1.60 out of 12
Air Quality Not available.
Flu Activity Not available.
METAR K2I0 241955Z AUTO 25016G23KT 10SM BKN040 12/03 A2977 RMK AO2 T01170031

More Conditions Fewer Conditions

Pressure 29.77 in
Visibility 10.0 miles
Clouds Mostly Cloudy 4000 ft
Dew Point 38 °F
Humidity 56%
Rainfall 0.00 in
Snow Depth Not available.
UV 1 out of 12
Pollen 1.60 out of 12
Air Quality Not available.
Flu Activity Not available.
METAR K2I0 241955Z AUTO 25016G23KT 10SM BKN040 12/03 A2977 RMK AO2 T01170031

More Conditions Fewer Conditions

10-Day Weather Forecast

Almanac

Astronomy

Nov. 24, 2014 Rise Set
Actual Time
Civil Twilight
Nautical Twilight
Astronomical Twilight
Moon
Length of Visible Light
Length of Day
Tomorrow will be .
, % of the Moon is Illuminated

Today's Extremes

State Highs State Lows

Community

WunderPhotos

Upload Photos

1,773,403 photos uploaded!

WunderBlogs® & News

Nearby

Air Quality

  Air Quality AQ Index Pollutant
Not available.

Snow Depth

Station Depth Elevation

Earthquake Activity

City Distance Mag. Time & Date
Minimum magnitude displayed is 2.5.

Coastal Water Temperatures

Place Temperature

Nearby Weather Stations